sensor_id;sensor_type;location;lat;lon;timestamp;temperature;humidity
53045;DHT22;38930;52.766;6.884;2023-07-16T00:00:28;18.10;99.90
53045;DHT22;38930;52.766;6.884;2023-07-16T00:02:54;18.10;99.90
53045;DHT22;38930;52.766;6.884;2023-07-16T00:05:20;18.10;99.90
53045;DHT22;38930;52.766;6.884;2023-07-16T00:07:45;18.10;99.90
53045;DHT22;38930;52.766;6.884;2023-07-16T00:10:11;18.00;99.90
53045;DHT22;38930;52.766;6.884;2023-07-16T00:12:36;17.90;99.90
53045;DHT22;38930;52.766;6.884;2023-07-16T00:15:02;17.90;99.90
53045;DHT22;38930;52.766;6.884;2023-07-16T00:17:28;17.80;99.90
53045;DHT22;38930;52.766;6.884;2023-07-16T00:19:54;17.70;99.90
53045;DHT22;38930;52.766;6.884;2023-07-16T00:22:19;17.60;99.90
53045;DHT22;38930;52.766;6.884;2023-07-16T00:24:45;17.60;99.90
53045;DHT22;38930;52.766;6.884;2023-07-16T00:27:10;17.50;99.90
53045;DHT22;38930;52.766;6.884;2023-07-16T00:29:36;17.50;99.90
53045;DHT22;38930;52.766;6.884;2023-07-16T00:32:02;17.50;99.90
53045;DHT22;38930;52.766;6.884;2023-07-16T00:34:27;17.50;99.90
53045;DHT22;38930;52.766;6.884;2023-07-16T00:36:53;17.40;99.90
53045;DHT22;38930;52.766;6.884;2023-07-16T00:39:19;17.30;99.90
53045;DHT22;38930;52.766;6.884;2023-07-16T00:41:44;17.30;99.90
53045;DHT22;38930;52.766;6.884;2023-07-16T00:44:10;17.30;99.90
53045;DHT22;38930;52.766;6.884;2023-07-16T00:46:35;17.30;99.90
53045;DHT22;38930;52.766;6.884;2023-07-16T00:49:01;17.20;99.90
53045;DHT22;38930;52.766;6.884;2023-07-16T00:51:27;17.20;99.90
53045;DHT22;38930;52.766;6.884;2023-07-16T00:53:54;17.10;99.90
53045;DHT22;38930;52.766;6.884;2023-07-16T00:56:20;17.10;99.90
53045;DHT22;38930;52.766;6.884;2023-07-16T00:58:46;17.10;99.90
53045;DHT22;38930;52.766;6.884;2023-07-16T01:01:12;17.00;99.90
53045;DHT22;38930;52.766;6.884;2023-07-16T01:03:38;17.00;99.90
53045;DHT22;38930;52.766;6.884;2023-07-16T01:06:25;17.00;99.90
53045;DHT22;38930;52.766;6.884;2023-07-16T01:09:04;16.90;99.90
53045;DHT22;38930;52.766;6.884;2023-07-16T01:11:33;16.90;99.90
53045;DHT22;38930;52.766;6.884;2023-07-16T01:14:01;16.90;99.90
53045;DHT22;38930;52.766;6.884;2023-07-16T01:16:27;16.90;99.90
53045;DHT22;38930;52.766;6.884;2023-07-16T01:18:53;16.90;99.90
53045;DHT22;38930;52.766;6.884;2023-07-16T01:21:20;16.90;99.90
53045;DHT22;38930;52.766;6.884;2023-07-16T01:31:48;16.70;99.90
53045;DHT22;38930;52.766;6.884;2023-07-16T01:34:15;16.70;99.90
53045;DHT22;38930;52.766;6.884;2023-07-16T01:36:41;16.70;99.90
53045;DHT22;38930;52.766;6.884;2023-07-16T01:39:07;16.70;99.90
53045;DHT22;38930;52.766;6.884;2023-07-16T01:41:33;16.70;99.90
53045;DHT22;38930;52.766;6.884;2023-07-16T01:43:58;16.60;99.90
53045;DHT22;38930;52.766;6.884;2023-07-16T01:46:24;16.60;99.90
53045;DHT22;38930;52.766;6.884;2023-07-16T01:48:50;16.60;99.90
53045;DHT22;38930;52.766;6.884;2023-07-16T01:51:16;16.60;99.90
53045;DHT22;38930;52.766;6.884;2023-07-16T01:53:42;16.60;99.90
53045;DHT22;38930;52.766;6.884;2023-07-16T01:56:08;16.60;99.90
53045;DHT22;38930;52.766;6.884;2023-07-16T01:58:33;16.60;99.90
53045;DHT22;38930;52.766;6.884;2023-07-16T02:00:59;16.60;99.90
53045;DHT22;38930;52.766;6.884;2023-07-16T02:03:25;16.50;99.90
53045;DHT22;38930;52.766;6.884;2023-07-16T02:05:50;16.50;99.90
53045;DHT22;38930;52.766;6.884;2023-07-16T02:08:19;16.50;99.90
53045;DHT22;38930;52.766;6.884;2023-07-16T02:10:46;16.50;99.90
53045;DHT22;38930;52.766;6.884;2023-07-16T02:13:12;16.60;99.90
53045;DHT22;38930;52.766;6.884;2023-07-16T02:15:38;16.50;99.90
53045;DHT22;38930;52.766;6.884;2023-07-16T02:18:04;16.40;99.90
53045;DHT22;38930;52.766;6.884;2023-07-16T02:20:30;16.50;99.90
53045;DHT22;38930;52.766;6.884;2023-07-16T02:22:55;16.40;99.90
53045;DHT22;38930;52.766;6.884;2023-07-16T02:25:21;16.40;99.90
53045;DHT22;38930;52.766;6.884;2023-07-16T02:27:47;16.30;99.90
53045;DHT22;38930;52.766;6.884;2023-07-16T02:30:15;16.30;99.90
53045;DHT22;38930;52.766;6.884;2023-07-16T02:32:40;16.30;99.90
53045;DHT22;38930;52.766;6.884;2023-07-16T02:35:07;16.20;99.90
53045;DHT22;38930;52.766;6.884;2023-07-16T02:37:32;16.20;99.90
53045;DHT22;38930;52.766;6.884;2023-07-16T02:39:58;16.20;99.90
53045;DHT22;38930;52.766;6.884;2023-07-16T02:42:24;16.10;99.90
53045;DHT22;38930;52.766;6.884;2023-07-16T02:44:50;16.20;99.90
53045;DHT22;38930;52.766;6.884;2023-07-16T02:47:16;16.10;99.90
53045;DHT22;38930;52.766;6.884;2023-07-16T02:49:41;16.10;99.90
53045;DHT22;38930;52.766;6.884;2023-07-16T02:52:07;16.10;99.90
53045;DHT22;38930;52.766;6.884;2023-07-16T02:54:34;16.10;99.90
53045;DHT22;38930;52.766;6.884;2023-07-16T02:57:00;16.00;99.90
53045;DHT22;38930;52.766;6.884;2023-07-16T02:59:26;16.00;99.90
53045;DHT22;38930;52.766;6.884;2023-07-16T03:01:52;16.10;99.90
53045;DHT22;38930;52.766;6.884;2023-07-16T03:04:17;16.10;99.90
53045;DHT22;38930;52.766;6.884;2023-07-16T03:06:43;16.00;99.90
53045;DHT22;38930;52.766;6.884;2023-07-16T03:09:08;16.00;99.90
53045;DHT22;38930;52.766;6.884;2023-07-16T03:11:34;16.00;99.90
53045;DHT22;38930;52.766;6.884;2023-07-16T03:14:00;16.00;99.90
53045;DHT22;38930;52.766;6.884;2023-07-16T03:16:25;16.00;99.90
53045;DHT22;38930;52.766;6.884;2023-07-16T03:18:51;15.90;99.90
53045;DHT22;38930;52.766;6.884;2023-07-16T03:21:17;15.90;99.90
53045;DHT22;38930;52.766;6.884;2023-07-16T03:23:42;15.90;99.90
53045;DHT22;38930;52.766;6.884;2023-07-16T03:26:08;15.90;99.90
53045;DHT22;38930;52.766;6.884;2023-07-16T03:28:33;15.80;99.90
53045;DHT22;38930;52.766;6.884;2023-07-16T03:30:59;15.80;99.90
53045;DHT22;38930;52.766;6.884;2023-07-16T03:33:25;15.80;99.90
53045;DHT22;38930;52.766;6.884;2023-07-16T03:35:51;15.80;99.90
53045;DHT22;38930;52.766;6.884;2023-07-16T03:38:17;15.90;99.90
53045;DHT22;38930;52.766;6.884;2023-07-16T03:40:47;15.90;99.90
53045;DHT22;38930;52.766;6.884;2023-07-16T03:43:13;15.80;99.90
53045;DHT22;38930;52.766;6.884;2023-07-16T03:45:39;15.80;99.90
53045;DHT22;38930;52.766;6.884;2023-07-16T03:48:05;15.90;99.90
53045;DHT22;38930;52.766;6.884;2023-07-16T03:50:30;15.90;99.90
53045;DHT22;38930;52.766;6.884;2023-07-16T03:52:56;15.90;99.90
53045;DHT22;38930;52.766;6.884;2023-07-16T03:55:22;15.90;99.90
53045;DHT22;38930;52.766;6.884;2023-07-16T03:57:47;15.90;99.90
53045;DHT22;38930;52.766;6.884;2023-07-16T04:00:13;16.00;99.90
53045;DHT22;38930;52.766;6.884;2023-07-16T04:02:39;16.00;99.90
53045;DHT22;38930;52.766;6.884;2023-07-16T04:05:05;16.00;99.90
53045;DHT22;38930;52.766;6.884;2023-07-16T04:07:31;16.00;99.90
53045;DHT22;38930;52.766;6.884;2023-07-16T04:09:56;16.00;99.90
53045;DHT22;38930;52.766;6.884;2023-07-16T04:12:22;16.00;99.90
53045;DHT22;38930;52.766;6.884;2023-07-16T04:14:47;16.00;99.90
53045;DHT22;38930;52.766;6.884;2023-07-16T04:17:13;16.00;99.90
53045;DHT22;38930;52.766;6.884;2023-07-16T04:19:39;16.10;99.90
53045;DHT22;38930;52.766;6.884;2023-07-16T04:22:05;16.10;99.90
53045;DHT22;38930;52.766;6.884;2023-07-16T04:24:31;16.10;99.90
53045;DHT22;38930;52.766;6.884;2023-07-16T04:26:58;16.10;99.90
53045;DHT22;38930;52.766;6.884;2023-07-16T04:29:24;16.10;99.90
53045;DHT22;38930;52.766;6.884;2023-07-16T04:31:49;16.10;99.90
53045;DHT22;38930;52.766;6.884;2023-07-16T04:34:15;16.20;99.90
53045;DHT22;38930;52.766;6.884;2023-07-16T04:36:42;16.20;99.90
53045;DHT22;38930;52.766;6.884;2023-07-16T04:39:08;16.20;99.90
53045;DHT22;38930;52.766;6.884;2023-07-16T04:41:33;16.20;99.90
53045;DHT22;38930;52.766;6.884;2023-07-16T04:43:59;16.30;99.90
53045;DHT22;38930;52.766;6.884;2023-07-16T04:46:25;16.30;99.90
53045;DHT22;38930;52.766;6.884;2023-07-16T04:48:51;16.30;99.90
53045;DHT22;38930;52.766;6.884;2023-07-16T04:51:16;16.30;99.90
53045;DHT22;38930;52.766;6.884;2023-07-16T04:53:42;16.30;99.90
53045;DHT22;38930;52.766;6.884;2023-07-16T04:56:12;16.40;99.90
53045;DHT22;38930;52.766;6.884;2023-07-16T04:58:38;16.40;99.90
53045;DHT22;38930;52.766;6.884;2023-07-16T05:01:03;16.40;99.90
53045;DHT22;38930;52.766;6.884;2023-07-16T05:03:29;16.50;99.90
53045;DHT22;38930;52.766;6.884;2023-07-16T05:05:55;16.50;99.90
53045;DHT22;38930;52.766;6.884;2023-07-16T05:08:20;16.50;99.90
53045;DHT22;38930;52.766;6.884;2023-07-16T05:10:46;16.60;99.90
53045;DHT22;38930;52.766;6.884;2023-07-16T05:13:12;16.60;99.90
53045;DHT22;38930;52.766;6.884;2023-07-16T05:15:38;16.60;99.90
53045;DHT22;38930;52.766;6.884;2023-07-16T05:18:03;16.70;99.90
53045;DHT22;38930;52.766;6.884;2023-07-16T05:20:29;16.70;99.90
53045;DHT22;38930;52.766;6.884;2023-07-16T05:22:55;16.70;99.90
53045;DHT22;38930;52.766;6.884;2023-07-16T05:25:20;16.80;99.90
53045;DHT22;38930;52.766;6.884;2023-07-16T05:27:46;16.90;99.90
53045;DHT22;38930;52.766;6.884;2023-07-16T05:30:12;17.00;99.90
53045;DHT22;38930;52.766;6.884;2023-07-16T05:32:38;17.10;99.90
53045;DHT22;38930;52.766;6.884;2023-07-16T05:35:04;17.30;99.90
53045;DHT22;38930;52.766;6.884;2023-07-16T05:37:29;17.50;99.90
53045;DHT22;38930;52.766;6.884;2023-07-16T05:39:55;17.60;99.90
53045;DHT22;38930;52.766;6.884;2023-07-16T05:42:21;17.80;99.90
53045;DHT22;38930;52.766;6.884;2023-07-16T05:44:49;17.90;99.90
53045;DHT22;38930;52.766;6.884;2023-07-16T05:47:15;18.00;99.90
53045;DHT22;38930;52.766;6.884;2023-07-16T05:49:41;18.10;99.90
53045;DHT22;38930;52.766;6.884;2023-07-16T05:52:06;18.20;99.90
53045;DHT22;38930;52.766;6.884;2023-07-16T05:54:33;18.30;99.90
53045;DHT22;38930;52.766;6.884;2023-07-16T05:56:59;18.50;99.90
53045;DHT22;38930;52.766;6.884;2023-07-16T05:59:26;18.50;99.90
53045;DHT22;38930;52.766;6.884;2023-07-16T06:01:51;18.60;99.90
53045;DHT22;38930;52.766;6.884;2023-07-16T06:04:17;18.80;99.90
53045;DHT22;38930;52.766;6.884;2023-07-16T06:06:43;18.90;99.90
53045;DHT22;38930;52.766;6.884;2023-07-16T06:09:08;19.00;99.90
53045;DHT22;38930;52.766;6.884;2023-07-16T06:11:34;19.00;99.90
53045;DHT22;38930;52.766;6.884;2023-07-16T06:14:00;19.00;99.90
53045;DHT22;38930;52.766;6.884;2023-07-16T06:16:25;19.10;99.90
53045;DHT22;38930;52.766;6.884;2023-07-16T06:18:51;19.30;99.90
53045;DHT22;38930;52.766;6.884;2023-07-16T06:21:17;19.30;99.90
53045;DHT22;38930;52.766;6.884;2023-07-16T06:23:43;19.40;99.90
53045;DHT22;38930;52.766;6.884;2023-07-16T06:26:08;19.50;99.90
53045;DHT22;38930;52.766;6.884;2023-07-16T06:28:34;19.50;99.90
53045;DHT22;38930;52.766;6.884;2023-07-16T06:30:59;19.60;99.90
53045;DHT22;38930;52.766;6.884;2023-07-16T06:33:25;19.60;99.90
53045;DHT22;38930;52.766;6.884;2023-07-16T06:35:52;19.60;99.90
53045;DHT22;38930;52.766;6.884;2023-07-16T06:38:18;19.60;99.90
53045;DHT22;38930;52.766;6.884;2023-07-16T06:40:48;19.70;99.90
53045;DHT22;38930;52.766;6.884;2023-07-16T06:43:14;19.70;99.90
53045;DHT22;38930;52.766;6.884;2023-07-16T06:45:40;19.80;99.90
53045;DHT22;38930;52.766;6.884;2023-07-16T06:48:06;19.80;99.90
53045;DHT22;38930;52.766;6.884;2023-07-16T06:50:31;19.80;99.90
53045;DHT22;38930;52.766;6.884;2023-07-16T06:52:57;19.90;99.90
53045;DHT22;38930;52.766;6.884;2023-07-16T06:55:23;19.90;99.90
53045;DHT22;38930;52.766;6.884;2023-07-16T06:57:48;19.80;99.90
53045;DHT22;38930;52.766;6.884;2023-07-16T07:00:14;19.80;99.90
53045;DHT22;38930;52.766;6.884;2023-07-16T07:02:41;19.80;99.90
53045;DHT22;38930;52.766;6.884;2023-07-16T07:05:07;19.80;99.90
53045;DHT22;38930;52.766;6.884;2023-07-16T07:07:33;19.90;99.90
53045;DHT22;38930;52.766;6.884;2023-07-16T07:09:58;19.90;99.90
53045;DHT22;38930;52.766;6.884;2023-07-16T07:12:26;19.90;99.90
53045;DHT22;38930;52.766;6.884;2023-07-16T07:14:52;19.90;99.90
53045;DHT22;38930;52.766;6.884;2023-07-16T07:17:17;20.10;99.90
53045;DHT22;38930;52.766;6.884;2023-07-16T07:19:43;20.10;99.90
53045;DHT22;38930;52.766;6.884;2023-07-16T07:22:12;20.20;99.90
53045;DHT22;38930;52.766;6.884;2023-07-16T07:24:44;20.20;99.90
53045;DHT22;38930;52.766;6.884;2023-07-16T07:27:11;20.20;99.90
53045;DHT22;38930;52.766;6.884;2023-07-16T07:29:36;20.30;99.90
53045;DHT22;38930;52.766;6.884;2023-07-16T07:32:02;20.40;99.90
53045;DHT22;38930;52.766;6.884;2023-07-16T07:34:27;20.40;99.90
53045;DHT22;38930;52.766;6.884;2023-07-16T07:36:53;20.40;99.90
53045;DHT22;38930;52.766;6.884;2023-07-16T07:39:19;20.40;99.90
53045;DHT22;38930;52.766;6.884;2023-07-16T07:41:44;20.50;99.90
53045;DHT22;38930;52.766;6.884;2023-07-16T07:44:10;20.50;99.90
53045;DHT22;38930;52.766;6.884;2023-07-16T07:46:35;20.50;99.90
53045;DHT22;38930;52.766;6.884;2023-07-16T07:49:01;20.60;99.90
53045;DHT22;38930;52.766;6.884;2023-07-16T07:51:27;20.60;99.90
53045;DHT22;38930;52.766;6.884;2023-07-16T07:53:52;20.70;99.90
53045;DHT22;38930;52.766;6.884;2023-07-16T07:56:18;20.70;99.90
53045;DHT22;38930;52.766;6.884;2023-07-16T07:58:44;20.70;99.90
53045;DHT22;38930;52.766;6.884;2023-07-16T08:01:10;20.80;99.90
53045;DHT22;38930;52.766;6.884;2023-07-16T08:03:36;20.80;99.90
53045;DHT22;38930;52.766;6.884;2023-07-16T08:06:02;20.90;99.90
53045;DHT22;38930;52.766;6.884;2023-07-16T08:08:28;21.00;99.90
53045;DHT22;38930;52.766;6.884;2023-07-16T08:10:54;21.10;99.90
53045;DHT22;38930;52.766;6.884;2023-07-16T08:13:20;21.20;99.90
53045;DHT22;38930;52.766;6.884;2023-07-16T08:15:46;21.20;99.90
53045;DHT22;38930;52.766;6.884;2023-07-16T08:18:13;21.30;99.90
53045;DHT22;38930;52.766;6.884;2023-07-16T08:20:39;21.40;99.90
53045;DHT22;38930;52.766;6.884;2023-07-16T08:23:06;21.40;99.90
53045;DHT22;38930;52.766;6.884;2023-07-16T08:25:32;21.50;99.90
53045;DHT22;38930;52.766;6.884;2023-07-16T08:28:07;21.50;99.90
53045;DHT22;38930;52.766;6.884;2023-07-16T08:30:33;21.60;99.90
53045;DHT22;38930;52.766;6.884;2023-07-16T08:32:59;21.70;99.90
53045;DHT22;38930;52.766;6.884;2023-07-16T08:35:25;21.60;99.90
53045;DHT22;38930;52.766;6.884;2023-07-16T08:37:51;21.70;99.90
53045;DHT22;38930;52.766;6.884;2023-07-16T08:40:16;21.60;99.90
53045;DHT22;38930;52.766;6.884;2023-07-16T08:42:45;21.50;99.90
53045;DHT22;38930;52.766;6.884;2023-07-16T08:45:11;21.30;99.90
53045;DHT22;38930;52.766;6.884;2023-07-16T08:47:37;21.20;99.90
53045;DHT22;38930;52.766;6.884;2023-07-16T08:50:04;21.10;99.90
53045;DHT22;38930;52.766;6.884;2023-07-16T08:52:30;20.90;99.90
53045;DHT22;38930;52.766;6.884;2023-07-16T08:54:56;20.90;99.90
53045;DHT22;38930;52.766;6.884;2023-07-16T08:57:22;20.70;99.90
53045;DHT22;38930;52.766;6.884;2023-07-16T08:59:49;20.60;99.90
53045;DHT22;38930;52.766;6.884;2023-07-16T09:02:19;20.50;99.90
53045;DHT22;38930;52.766;6.884;2023-07-16T09:04:48;20.40;99.90
53045;DHT22;38930;52.766;6.884;2023-07-16T09:07:14;20.30;99.90
53045;DHT22;38930;52.766;6.884;2023-07-16T09:09:40;20.30;99.90
53045;DHT22;38930;52.766;6.884;2023-07-16T09:12:09;20.20;99.90
53045;DHT22;38930;52.766;6.884;2023-07-16T09:14:36;20.30;99.90
53045;DHT22;38930;52.766;6.884;2023-07-16T09:17:02;20.50;99.90
53045;DHT22;38930;52.766;6.884;2023-07-16T09:19:32;20.70;99.90
53045;DHT22;38930;52.766;6.884;2023-07-16T09:21:57;20.80;99.90
53045;DHT22;38930;52.766;6.884;2023-07-16T09:24:23;21.00;99.90
53045;DHT22;38930;52.766;6.884;2023-07-16T09:26:53;21.20;99.90
53045;DHT22;38930;52.766;6.884;2023-07-16T09:29:20;21.20;99.90
53045;DHT22;38930;52.766;6.884;2023-07-16T09:31:58;21.30;99.90
53045;DHT22;38930;52.766;6.884;2023-07-16T09:34:26;21.40;99.90
53045;DHT22;38930;52.766;6.884;2023-07-16T09:36:52;21.40;99.90
53045;DHT22;38930;52.766;6.884;2023-07-16T09:39:18;21.40;99.90
53045;DHT22;38930;52.766;6.884;2023-07-16T09:41:45;21.40;99.90
53045;DHT22;38930;52.766;6.884;2023-07-16T09:44:13;21.40;99.90
53045;DHT22;38930;52.766;6.884;2023-07-16T09:46:38;21.60;99.90
53045;DHT22;38930;52.766;6.884;2023-07-16T09:49:05;21.60;99.90
53045;DHT22;38930;52.766;6.884;2023-07-16T09:51:31;21.50;99.90
53045;DHT22;38930;52.766;6.884;2023-07-16T09:54:00;21.40;99.90
53045;DHT22;38930;52.766;6.884;2023-07-16T09:56:34;21.20;99.90
53045;DHT22;38930;52.766;6.884;2023-07-16T09:59:01;21.00;99.90
53045;DHT22;38930;52.766;6.884;2023-07-16T10:01:29;20.90;99.90
53045;DHT22;38930;52.766;6.884;2023-07-16T10:03:55;20.80;99.90
53045;DHT22;38930;52.766;6.884;2023-07-16T10:06:21;21.00;99.90
53045;DHT22;38930;52.766;6.884;2023-07-16T10:08:49;21.30;99.90
53045;DHT22;38930;52.766;6.884;2023-07-16T10:11:19;21.60;99.90
53045;DHT22;38930;52.766;6.884;2023-07-16T10:13:50;21.80;99.90
53045;DHT22;38930;52.766;6.884;2023-07-16T10:16:22;21.90;99.90
53045;DHT22;38930;52.766;6.884;2023-07-16T10:18:52;22.10;99.90
53045;DHT22;38930;52.766;6.884;2023-07-16T10:21:23;22.00;99.90
53045;DHT22;38930;52.766;6.884;2023-07-16T10:23:59;22.00;99.90
53045;DHT22;38930;52.766;6.884;2023-07-16T10:26:28;21.90;99.90
53045;DHT22;38930;52.766;6.884;2023-07-16T10:28:54;21.90;99.90
53045;DHT22;38930;52.766;6.884;2023-07-16T10:31:24;21.90;99.90
53045;DHT22;38930;52.766;6.884;2023-07-16T10:36:26;21.90;99.90
53045;DHT22;38930;52.766;6.884;2023-07-16T10:38:51;21.70;99.90
53045;DHT22;38930;52.766;6.884;2023-07-16T10:41:17;21.50;99.90
53045;DHT22;38930;52.766;6.884;2023-07-16T10:43:43;21.50;99.90
53045;DHT22;38930;52.766;6.884;2023-07-16T10:46:09;21.30;99.90
53045;DHT22;38930;52.766;6.884;2023-07-16T10:48:35;21.10;99.90
53045;DHT22;38930;52.766;6.884;2023-07-16T10:51:00;21.10;99.90
53045;DHT22;38930;52.766;6.884;2023-07-16T10:53:26;20.90;99.90
53045;DHT22;38930;52.766;6.884;2023-07-16T10:55:52;20.90;99.90
53045;DHT22;38930;52.766;6.884;2023-07-16T10:58:17;21.10;99.90
53045;DHT22;38930;52.766;6.884;2023-07-16T11:00:44;21.30;99.90
53045;DHT22;38930;52.766;6.884;2023-07-16T11:03:10;21.40;99.90
53045;DHT22;38930;52.766;6.884;2023-07-16T11:05:36;21.60;99.90
53045;DHT22;38930;52.766;6.884;2023-07-16T11:08:01;21.80;99.90
53045;DHT22;38930;52.766;6.884;2023-07-16T11:10:29;21.90;99.90
53045;DHT22;38930;52.766;6.884;2023-07-16T11:12:55;22.00;99.90
53045;DHT22;38930;52.766;6.884;2023-07-16T11:15:34;22.10;99.90
53045;DHT22;38930;52.766;6.884;2023-07-16T11:18:01;22.10;99.90
53045;DHT22;38930;52.766;6.884;2023-07-16T11:20:26;22.20;99.90
53045;DHT22;38930;52.766;6.884;2023-07-16T11:22:52;22.20;99.90
53045;DHT22;38930;52.766;6.884;2023-07-16T11:25:18;22.20;99.90
53045;DHT22;38930;52.766;6.884;2023-07-16T11:27:45;22.20;99.90
53045;DHT22;38930;52.766;6.884;2023-07-16T11:30:11;22.10;99.90
53045;DHT22;38930;52.766;6.884;2023-07-16T11:32:41;22.00;99.90
53045;DHT22;38930;52.766;6.884;2023-07-16T11:35:08;21.90;99.90
53045;DHT22;38930;52.766;6.884;2023-07-16T11:37:35;21.80;99.90
53045;DHT22;38930;52.766;6.884;2023-07-16T11:40:03;22.00;99.90
53045;DHT22;38930;52.766;6.884;2023-07-16T11:42:39;22.20;99.90
53045;DHT22;38930;52.766;6.884;2023-07-16T11:45:14;22.30;99.90
53045;DHT22;38930;52.766;6.884;2023-07-16T11:47:40;22.40;99.90
53045;DHT22;38930;52.766;6.884;2023-07-16T11:50:06;22.50;99.90
53045;DHT22;38930;52.766;6.884;2023-07-16T11:52:32;22.50;99.90
53045;DHT22;38930;52.766;6.884;2023-07-16T11:54:58;22.40;99.90
53045;DHT22;38930;52.766;6.884;2023-07-16T11:57:29;22.30;99.90
53045;DHT22;38930;52.766;6.884;2023-07-16T11:59:55;22.10;99.90
53045;DHT22;38930;52.766;6.884;2023-07-16T12:02:21;22.00;99.90
53045;DHT22;38930;52.766;6.884;2023-07-16T12:04:47;21.80;99.90
53045;DHT22;38930;52.766;6.884;2023-07-16T12:07:13;21.70;99.90
53045;DHT22;38930;52.766;6.884;2023-07-16T12:09:38;21.80;99.90
53045;DHT22;38930;52.766;6.884;2023-07-16T12:12:04;21.90;99.90
53045;DHT22;38930;52.766;6.884;2023-07-16T12:14:31;21.90;99.90
53045;DHT22;38930;52.766;6.884;2023-07-16T12:16:57;21.90;99.90
53045;DHT22;38930;52.766;6.884;2023-07-16T12:19:22;21.80;99.90
53045;DHT22;38930;52.766;6.884;2023-07-16T12:21:48;21.80;99.90
53045;DHT22;38930;52.766;6.884;2023-07-16T12:24:14;21.80;99.90
53045;DHT22;38930;52.766;6.884;2023-07-16T12:26:39;21.70;99.90
53045;DHT22;38930;52.766;6.884;2023-07-16T12:29:05;21.60;99.90
53045;DHT22;38930;52.766;6.884;2023-07-16T12:31:31;21.60;99.90
53045;DHT22;38930;52.766;6.884;2023-07-16T12:33:58;21.70;99.90
53045;DHT22;38930;52.766;6.884;2023-07-16T12:36:24;21.80;99.90
53045;DHT22;38930;52.766;6.884;2023-07-16T12:38:50;21.90;99.90
53045;DHT22;38930;52.766;6.884;2023-07-16T12:41:16;21.90;99.90
53045;DHT22;38930;52.766;6.884;2023-07-16T12:43:42;21.90;99.90
53045;DHT22;38930;52.766;6.884;2023-07-16T12:46:07;22.00;99.90
53045;DHT22;38930;52.766;6.884;2023-07-16T12:48:33;21.90;99.90
53045;DHT22;38930;52.766;6.884;2023-07-16T12:50:59;21.90;99.90
53045;DHT22;38930;52.766;6.884;2023-07-16T12:53:25;21.90;99.90
53045;DHT22;38930;52.766;6.884;2023-07-16T12:55:51;22.00;99.90
53045;DHT22;38930;52.766;6.884;2023-07-16T12:58:17;22.10;99.90
53045;DHT22;38930;52.766;6.884;2023-07-16T13:00:42;22.30;99.90
53045;DHT22;38930;52.766;6.884;2023-07-16T13:03:08;22.40;99.90
53045;DHT22;38930;52.766;6.884;2023-07-16T13:05:37;22.40;99.90
53045;DHT22;38930;52.766;6.884;2023-07-16T13:08:03;22.30;99.90
53045;DHT22;38930;52.766;6.884;2023-07-16T13:10:29;22.10;99.90
53045;DHT22;38930;52.766;6.884;2023-07-16T13:12:55;22.00;99.90
53045;DHT22;38930;52.766;6.884;2023-07-16T13:15:20;21.70;99.90
53045;DHT22;38930;52.766;6.884;2023-07-16T13:17:46;21.70;99.90
53045;DHT22;38930;52.766;6.884;2023-07-16T13:20:13;21.70;99.90
53045;DHT22;38930;52.766;6.884;2023-07-16T13:22:39;21.90;99.90
53045;DHT22;38930;52.766;6.884;2023-07-16T13:25:04;22.00;99.90
53045;DHT22;38930;52.766;6.884;2023-07-16T13:27:30;22.10;99.90
53045;DHT22;38930;52.766;6.884;2023-07-16T13:29:56;22.10;99.90
53045;DHT22;38930;52.766;6.884;2023-07-16T13:32:21;22.30;99.90
53045;DHT22;38930;52.766;6.884;2023-07-16T13:34:47;22.40;99.90
53045;DHT22;38930;52.766;6.884;2023-07-16T13:37:13;22.60;99.90
53045;DHT22;38930;52.766;6.884;2023-07-16T13:39:39;22.70;99.90
53045;DHT22;38930;52.766;6.884;2023-07-16T13:42:05;22.80;99.90
53045;DHT22;38930;52.766;6.884;2023-07-16T13:44:34;23.00;99.90
53045;DHT22;38930;52.766;6.884;2023-07-16T13:47:00;23.10;99.90
53045;DHT22;38930;52.766;6.884;2023-07-16T13:49:26;23.10;99.90
53045;DHT22;38930;52.766;6.884;2023-07-16T13:51:51;23.00;99.90
53045;DHT22;38930;52.766;6.884;2023-07-16T13:54:17;23.00;99.90
53045;DHT22;38930;52.766;6.884;2023-07-16T13:56:42;23.10;99.90
53045;DHT22;38930;52.766;6.884;2023-07-16T13:59:08;23.20;99.90
53045;DHT22;38930;52.766;6.884;2023-07-16T14:01:38;23.40;99.90
53045;DHT22;38930;52.766;6.884;2023-07-16T14:04:04;23.50;99.90
53045;DHT22;38930;52.766;6.884;2023-07-16T14:06:30;23.40;99.90
53045;DHT22;38930;52.766;6.884;2023-07-16T14:08:55;23.30;99.90
53045;DHT22;38930;52.766;6.884;2023-07-16T14:11:22;23.10;99.90
53045;DHT22;38930;52.766;6.884;2023-07-16T14:13:48;23.10;99.90
53045;DHT22;38930;52.766;6.884;2023-07-16T14:16:25;23.10;99.90
53045;DHT22;38930;52.766;6.884;2023-07-16T14:18:52;23.10;99.90
53045;DHT22;38930;52.766;6.884;2023-07-16T14:21:19;23.00;99.90
53045;DHT22;38930;52.766;6.884;2023-07-16T14:23:45;23.10;99.90
53045;DHT22;38930;52.766;6.884;2023-07-16T14:26:11;23.00;99.90
53045;DHT22;38930;52.766;6.884;2023-07-16T14:28:37;23.00;99.90
53045;DHT22;38930;52.766;6.884;2023-07-16T14:31:03;22.70;99.90
53045;DHT22;38930;52.766;6.884;2023-07-16T14:33:29;22.60;99.90
53045;DHT22;38930;52.766;6.884;2023-07-16T14:35:56;22.60;99.90
53045;DHT22;38930;52.766;6.884;2023-07-16T14:38:21;22.80;99.90
53045;DHT22;38930;52.766;6.884;2023-07-16T14:40:47;23.00;99.90
53045;DHT22;38930;52.766;6.884;2023-07-16T14:43:13;23.10;99.90
53045;DHT22;38930;52.766;6.884;2023-07-16T14:45:39;23.20;99.90
53045;DHT22;38930;52.766;6.884;2023-07-16T14:48:06;23.30;99.90
53045;DHT22;38930;52.766;6.884;2023-07-16T14:50:31;23.40;99.90
53045;DHT22;38930;52.766;6.884;2023-07-16T14:52:57;23.40;99.90
53045;DHT22;38930;52.766;6.884;2023-07-16T14:55:22;23.50;99.90
53045;DHT22;38930;52.766;6.884;2023-07-16T14:57:48;23.60;99.90
53045;DHT22;38930;52.766;6.884;2023-07-16T15:00:14;23.60;99.90
53045;DHT22;38930;52.766;6.884;2023-07-16T15:02:40;23.70;99.90
53045;DHT22;38930;52.766;6.884;2023-07-16T15:05:08;23.70;99.90
53045;DHT22;38930;52.766;6.884;2023-07-16T15:07:34;23.70;99.90
53045;DHT22;38930;52.766;6.884;2023-07-16T15:10:01;23.80;99.90
53045;DHT22;38930;52.766;6.884;2023-07-16T15:12:26;23.80;99.90
53045;DHT22;38930;52.766;6.884;2023-07-16T15:14:53;23.80;99.90
53045;DHT22;38930;52.766;6.884;2023-07-16T15:17:18;23.70;99.90
53045;DHT22;38930;52.766;6.884;2023-07-16T15:19:44;23.60;99.90
53045;DHT22;38930;52.766;6.884;2023-07-16T15:22:10;23.60;99.90
53045;DHT22;38930;52.766;6.884;2023-07-16T15:24:36;23.50;99.90
53045;DHT22;38930;52.766;6.884;2023-07-16T15:27:02;23.40;99.90
53045;DHT22;38930;52.766;6.884;2023-07-16T15:29:29;23.20;99.90
53045;DHT22;38930;52.766;6.884;2023-07-16T15:31:54;23.10;99.90
53045;DHT22;38930;52.766;6.884;2023-07-16T15:34:20;22.90;99.90